createdAt,value
2022-09-02T00:01:38.018Z,2.30
2022-09-02T00:04:21.528Z,2.60
2022-09-02T00:06:54.220Z,2.20
2022-09-02T00:09:26.053Z,2.50
2022-09-02T00:11:56.572Z,2.80
2022-09-02T00:14:33.500Z,2.30
2022-09-02T00:17:03.794Z,2.10
2022-09-02T00:19:32.344Z,2.40
2022-09-02T00:22:02.572Z,2.40
2022-09-02T00:24:31.530Z,2.60
2022-09-02T00:27:00.100Z,2.00
2022-09-02T00:29:29.058Z,2.10
2022-09-02T00:31:57.562Z,2.40
2022-09-02T00:34:26.433Z,2.60
2022-09-02T00:36:54.793Z,3.10
2022-09-02T00:39:23.147Z,2.50
2022-09-02T00:41:51.729Z,2.30
2022-09-02T00:44:22.898Z,3.00
2022-09-02T00:46:51.206Z,2.20
2022-09-02T00:49:36.241Z,2.40
2022-09-02T00:52:20.904Z,1.60
2022-09-02T00:54:56.771Z,2.40
2022-09-02T00:57:34.543Z,2.10
2022-09-02T01:00:17.798Z,2.10
2022-09-02T01:02:55.072Z,2.60
2022-09-02T01:05:29.775Z,2.20
2022-09-02T01:07:59.172Z,2.70
2022-09-02T01:10:35.110Z,2.90
2022-09-02T01:13:12.015Z,2.80
2022-09-02T01:15:46.200Z,4.20
2022-09-02T01:18:20.911Z,3.50
2022-09-02T01:20:49.280Z,2.80
2022-09-02T01:23:19.362Z,2.70
2022-09-02T01:25:48.605Z,2.90
2022-09-02T01:28:20.059Z,2.90
2022-09-02T01:30:53.711Z,2.60
2022-09-02T01:33:25.396Z,2.70
2022-09-02T01:35:54.930Z,2.90
2022-09-02T01:38:26.020Z,3.00
2022-09-02T01:40:54.536Z,3.00
2022-09-02T01:43:26.577Z,3.00
2022-09-02T01:45:58.644Z,2.70
2022-09-02T01:48:27.401Z,2.60
2022-09-02T01:51:01.587Z,2.80
2022-09-02T01:53:31.668Z,2.80
2022-09-02T01:56:00.393Z,2.40
2022-09-02T01:58:28.891Z,2.60
2022-09-02T02:00:57.321Z,2.30
2022-09-02T02:03:26.087Z,2.70
2022-09-02T02:05:55.489Z,2.50
2022-09-02T02:08:24.350Z,2.90
2022-09-02T02:10:52.703Z,3.10
2022-09-02T02:13:21.082Z,3.10
2022-09-02T02:15:49.565Z,2.70
2022-09-02T02:18:18.008Z,3.00
2022-09-02T02:20:46.344Z,2.60
2022-09-02T02:23:14.855Z,2.80
2022-09-02T02:25:43.656Z,2.70
2022-09-02T02:28:12.003Z,2.50
2022-09-02T02:30:40.403Z,2.30
2022-09-02T02:33:08.752Z,2.40
2022-09-02T02:35:37.140Z,2.90
2022-09-02T02:38:05.707Z,2.20
2022-09-02T02:40:34.211Z,3.00
2022-09-02T02:43:02.534Z,2.30
2022-09-02T02:45:30.821Z,3.10
2022-09-02T02:47:59.590Z,3.00
2022-09-02T02:50:28.100Z,2.30
2022-09-02T02:52:56.670Z,3.30
2022-09-02T02:55:26.231Z,3.20
2022-09-02T02:57:54.664Z,3.50
2022-09-02T03:00:28.662Z,3.50
2022-09-02T03:03:05.635Z,2.90
2022-09-02T03:05:37.804Z,3.00
2022-09-02T03:08:09.906Z,2.50
2022-09-02T03:10:42.044Z,3.30
2022-09-02T03:13:12.082Z,3.00
2022-09-02T03:15:40.532Z,2.40
2022-09-02T03:18:09.134Z,3.30
2022-09-02T03:20:39.952Z,2.50
2022-09-02T03:23:08.834Z,2.70
2022-09-02T03:25:42.866Z,2.70
2022-09-02T03:28:35.824Z,2.60
2022-09-02T03:31:05.490Z,2.90
2022-09-02T03:33:34.415Z,3.00
2022-09-02T03:36:03.102Z,3.20
2022-09-02T03:38:31.426Z,2.80
2022-09-02T03:40:59.773Z,2.70
2022-09-02T03:43:28.204Z,3.10
2022-09-02T03:45:56.762Z,2.60
2022-09-02T03:48:25.117Z,2.70
2022-09-02T03:50:53.430Z,2.70
2022-09-02T03:53:21.893Z,3.10
2022-09-02T03:55:50.863Z,3.40
2022-09-02T03:58:19.886Z,2.80
2022-09-02T04:00:54.769Z,3.70
2022-09-02T04:03:23.516Z,3.00
2022-09-02T04:05:52.578Z,2.50
2022-09-02T04:08:21.795Z,2.80
2022-09-02T04:10:50.716Z,2.80
2022-09-02T04:13:19.472Z,3.00
2022-09-02T04:15:49.220Z,3.00
2022-09-02T04:18:18.464Z,2.70
2022-09-02T04:20:46.994Z,3.70
2022-09-02T04:23:16.602Z,3.20
2022-09-02T04:25:45.311Z,2.70
2022-09-02T04:28:13.612Z,2.50
2022-09-02T04:30:43.414Z,2.60
2022-09-02T04:33:12.321Z,2.80
2022-09-02T04:35:48.193Z,2.80
2022-09-02T04:38:17.888Z,2.90
2022-09-02T04:40:47.860Z,2.90
2022-09-02T04:43:16.337Z,2.50
2022-09-02T04:45:46.446Z,3.20
2022-09-02T04:48:15.240Z,2.70
2022-09-02T04:50:43.589Z,2.50
2022-09-02T04:53:12.464Z,3.20
2022-09-02T04:55:42.679Z,3.20
2022-09-02T04:58:11.674Z,2.80
2022-09-02T05:00:40.369Z,3.20
2022-09-02T05:03:08.800Z,2.80
2022-09-02T05:05:39.155Z,3.40
2022-09-02T05:08:07.889Z,3.00
2022-09-02T05:10:36.527Z,3.00
2022-09-02T05:13:05.030Z,3.20
2022-09-02T05:15:33.549Z,3.30
2022-09-02T05:18:01.980Z,2.70
2022-09-02T05:20:32.307Z,3.10
2022-09-02T05:26:13.605Z,3.10
2022-09-02T05:28:43.546Z,2.70
2022-09-02T05:31:18.116Z,2.70
2022-09-02T05:33:47.678Z,2.30
2022-09-02T05:36:20.496Z,3.00
2022-09-02T05:38:49.783Z,2.70
2022-09-02T05:41:24.287Z,2.80
2022-09-02T05:43:56.337Z,2.70
2022-09-02T05:46:26.057Z,2.30
2022-09-02T05:49:07.832Z,1.90
2022-09-02T05:51:55.926Z,2.60
2022-09-02T05:54:40.995Z,2.70
2022-09-02T05:57:14.466Z,3.30
2022-09-02T05:59:44.194Z,2.10
2022-09-02T06:02:14.981Z,2.50
2022-09-02T06:04:49.289Z,2.70
2022-09-02T06:07:36.679Z,2.10
2022-09-02T06:10:07.596Z,1.90
2022-09-02T06:12:39.482Z,2.70
2022-09-02T06:15:12.543Z,2.50
2022-09-02T06:17:40.904Z,2.30
2022-09-02T06:20:10.027Z,2.90
2022-09-02T06:22:40.164Z,2.10
2022-09-02T06:25:27.696Z,2.10
2022-09-02T06:28:06.375Z,2.20
2022-09-02T06:30:43.438Z,2.20
2022-09-02T06:33:12.108Z,3.40
2022-09-02T06:35:45.388Z,1.80
2022-09-02T06:38:17.625Z,2.10
2022-09-02T06:40:50.437Z,1.80
2022-09-02T06:43:20.166Z,2.10
2022-09-02T06:45:48.824Z,1.80
2022-09-02T06:48:17.266Z,1.90
2022-09-02T06:50:50.083Z,1.70
2022-09-02T06:53:19.459Z,2.30
2022-09-02T06:55:49.072Z,1.80
2022-09-02T06:58:17.963Z,2.40
2022-09-02T07:01:29.415Z,2.60
2022-09-02T07:04:19.028Z,2.10
2022-09-02T07:06:52.754Z,1.90
2022-09-02T07:09:31.331Z,1.90
2022-09-02T07:12:04.585Z,1.90
2022-09-02T07:14:42.390Z,2.10
2022-09-02T07:17:17.690Z,2.10
2022-09-02T07:19:46.074Z,1.80
2022-09-02T07:22:15.074Z,1.80
2022-09-02T07:24:47.434Z,1.90
2022-09-02T07:27:15.903Z,1.60
2022-09-02T07:29:45.976Z,1.70
2022-09-02T07:32:18.787Z,1.50
2022-09-02T07:34:47.506Z,1.70
2022-09-02T07:37:15.871Z,1.10
2022-09-02T07:39:45.338Z,1.20
2022-09-02T07:42:14.081Z,1.60
2022-09-02T07:44:42.572Z,1.60
2022-09-02T07:47:10.934Z,1.10
2022-09-02T07:52:29.447Z,1.30
2022-09-02T07:54:58.136Z,1.10
2022-09-02T07:57:26.667Z,1.40
2022-09-02T07:59:54.960Z,1.30
2022-09-02T08:02:23.636Z,1.20
2022-09-02T08:04:52.071Z,0.80
2022-09-02T08:07:24.356Z,1.00
2022-09-02T08:09:53.010Z,0.80
2022-09-02T08:12:22.445Z,0.90
2022-09-02T08:14:51.196Z,0.90
2022-09-02T08:17:19.700Z,0.70
2022-09-02T08:19:48.134Z,0.70
2022-09-02T08:22:16.493Z,1.10
2022-09-02T08:25:11.700Z,1.00
2022-09-02T08:27:41.328Z,1.40
2022-09-02T08:30:10.813Z,0.90
2022-09-02T08:32:40.498Z,0.80
2022-09-02T08:35:10.450Z,0.80
2022-09-02T08:37:39.174Z,0.90
2022-09-02T08:40:21.752Z,0.80
2022-09-02T08:42:54.428Z,0.60
2022-09-02T08:45:28.948Z,0.80
2022-09-02T08:48:10.650Z,0.70
2022-09-02T08:50:44.250Z,0.70
2022-09-02T08:53:32.571Z,1.20
2022-09-02T08:56:03.696Z,0.80
2022-09-02T08:58:47.267Z,0.80
2022-09-02T09:01:32.501Z,0.90
2022-09-02T09:04:18.856Z,0.60
2022-09-02T09:07:08.768Z,0.60
2022-09-02T09:10:32.256Z,0.80
2022-09-02T09:13:20.566Z,0.90
2022-09-02T09:16:08.200Z,0.60
2022-09-02T09:18:48.811Z,1.00
2022-09-02T09:21:19.171Z,1.40
2022-09-02T09:23:49.460Z,0.90
2022-09-02T09:26:26.518Z,0.80
2022-09-02T09:28:56.624Z,0.80
2022-09-02T09:31:31.185Z,0.80
2022-09-02T09:34:12.740Z,0.60
2022-09-02T09:36:40.996Z,1.00
2022-09-02T09:39:31.537Z,1.00
2022-09-02T09:42:03.630Z,1.00
2022-09-02T09:44:46.486Z,1.00
2022-09-02T09:47:22.916Z,1.00
2022-09-02T09:50:09.247Z,0.70
2022-09-02T09:52:43.585Z,1.00
2022-09-02T09:55:24.542Z,1.10
2022-09-02T09:58:09.698Z,1.00
2022-09-02T10:00:40.588Z,0.80
2022-09-02T10:03:43.910Z,0.80
2022-09-02T10:06:39.548Z,1.20
2022-09-02T10:09:36.499Z,0.90
2022-09-02T10:12:27.164Z,1.30
2022-09-02T10:14:56.094Z,0.90
2022-09-02T10:17:42.419Z,0.80
2022-09-02T10:20:22.899Z,0.70
2022-09-02T10:23:05.840Z,0.70
2022-09-02T10:25:54.675Z,0.80
2022-09-02T10:29:11.881Z,1.20
2022-09-02T10:32:17.677Z,0.90
2022-09-02T10:35:25.899Z,0.50
2022-09-02T10:38:52.850Z,0.60
2022-09-02T10:42:11.107Z,0.70
2022-09-02T10:45:12.274Z,0.70
2022-09-02T10:47:41.865Z,0.60
2022-09-02T10:51:03.173Z,0.50
2022-09-02T10:54:15.216Z,0.60
2022-09-02T10:57:12.529Z,1.10
2022-09-02T10:59:51.363Z,1.00
2022-09-02T11:02:35.234Z,0.90
2022-09-02T11:05:27.603Z,0.80
2022-09-02T11:08:09.913Z,0.70
2022-09-02T11:11:07.767Z,0.70
2022-09-02T11:13:56.694Z,0.90
2022-09-02T11:16:46.112Z,0.40
2022-09-02T11:19:55.914Z,0.80
2022-09-02T11:22:54.372Z,0.90
2022-09-02T11:26:00.290Z,0.50
2022-09-02T11:32:05.841Z,1.00
2022-09-02T11:35:03.765Z,0.80
2022-09-02T11:38:16.612Z,0.70
2022-09-02T11:41:36.712Z,0.60
2022-09-02T11:44:40.812Z,0.80
2022-09-02T11:47:21.637Z,0.40
2022-09-02T11:50:45.705Z,0.50
2022-09-02T11:53:20.543Z,0.70
2022-09-02T11:56:02.657Z,0.50
2022-09-02T11:58:44.463Z,0.60
2022-09-02T12:01:15.869Z,0.80
2022-09-02T12:07:12.989Z,0.90
2022-09-02T12:09:48.068Z,1.10
2022-09-02T12:12:47.837Z,1.10
2022-09-02T12:15:19.909Z,1.00
2022-09-02T12:17:52.023Z,1.20
2022-09-02T12:21:23.388Z,2.00
2022-09-02T12:24:10.255Z,1.10
2022-09-02T12:26:53.573Z,2.40
2022-09-02T12:29:24.769Z,1.30
2022-09-02T12:31:55.991Z,1.20
2022-09-02T12:34:24.325Z,1.10
2022-09-02T12:37:55.697Z,1.70
2022-09-02T12:40:34.341Z,1.30
2022-09-02T12:43:17.857Z,1.00
2022-09-02T12:45:50.995Z,1.20
2022-09-02T12:48:43.320Z,0.70
2022-09-02T12:51:54.418Z,0.80
2022-09-02T12:54:49.664Z,0.70
2022-09-02T12:57:19.402Z,0.90
2022-09-02T12:59:48.689Z,0.70
2022-09-02T13:02:29.579Z,0.90
2022-09-02T13:06:21.272Z,0.70
2022-09-02T13:09:46.963Z,0.80
2022-09-02T13:12:59.122Z,1.10
2022-09-02T13:16:07.592Z,0.70
2022-09-02T13:19:32.868Z,0.70
2022-09-02T13:22:52.560Z,1.10
2022-09-02T13:26:27.623Z,1.00
2022-09-02T13:29:47.927Z,1.20
2022-09-02T13:32:28.803Z,1.10
2022-09-02T13:35:02.580Z,0.70
2022-09-02T13:37:39.410Z,0.60
2022-09-02T13:40:36.470Z,1.10
2022-09-02T13:43:27.204Z,0.60
2022-09-02T13:46:04.764Z,0.70
2022-09-02T13:48:34.321Z,0.90
2022-09-02T13:51:14.550Z,0.80
2022-09-02T13:56:36.753Z,0.90
2022-09-02T13:59:05.157Z,1.00
2022-09-02T14:01:40.232Z,0.80
2022-09-02T14:04:17.082Z,1.60
2022-09-02T14:06:48.017Z,0.80
2022-09-02T14:09:29.230Z,0.70
2022-09-02T14:12:00.685Z,1.10
2022-09-02T14:14:29.341Z,0.70
2022-09-02T14:17:21.514Z,0.80
2022-09-02T14:19:51.832Z,0.80
2022-09-02T14:22:29.454Z,1.10
2022-09-02T14:24:57.921Z,1.30
2022-09-02T14:27:26.723Z,1.00
2022-09-02T14:29:58.174Z,0.80
2022-09-02T14:32:28.469Z,0.90
2022-09-02T14:35:17.781Z,0.70
2022-09-02T14:37:55.877Z,1.00
2022-09-02T14:40:37.610Z,0.80
2022-09-02T14:43:16.308Z,0.90
2022-09-02T14:45:50.106Z,1.20
2022-09-02T14:48:27.009Z,0.90
2022-09-02T14:51:03.271Z,1.70
2022-09-02T14:53:32.468Z,0.80
2022-09-02T14:56:01.260Z,0.80
2022-09-02T14:58:30.412Z,1.00
2022-09-02T15:01:01.203Z,1.00
2022-09-02T15:03:32.070Z,0.90
2022-09-02T15:06:00.384Z,0.90
2022-09-02T15:08:28.796Z,0.40
2022-09-02T15:11:00.088Z,0.70
2022-09-02T15:13:35.065Z,0.50
2022-09-02T15:16:03.933Z,0.90
2022-09-02T15:18:32.350Z,0.60
2022-09-02T15:21:01.103Z,0.90
2022-09-02T15:23:36.256Z,1.70
2022-09-02T15:26:06.596Z,0.70
2022-09-02T15:28:38.791Z,1.00
2022-09-02T15:31:23.791Z,1.40
2022-09-02T15:34:04.027Z,0.80
2022-09-02T15:36:39.834Z,0.80
2022-09-02T15:39:31.229Z,0.70
2022-09-02T15:42:00.202Z,0.70
2022-09-02T15:44:29.648Z,0.70
2022-09-02T15:47:06.195Z,1.10
2022-09-02T15:49:35.426Z,0.70
2022-09-02T15:52:06.631Z,0.70
2022-09-02T15:54:35.071Z,1.10
2022-09-02T15:57:11.655Z,0.80
2022-09-02T15:59:42.653Z,0.90
2022-09-02T16:02:19.918Z,0.90
2022-09-02T16:04:54.330Z,0.70
2022-09-02T16:07:31.871Z,0.60
2022-09-02T16:10:08.338Z,1.00
2022-09-02T16:12:39.498Z,0.60
2022-09-02T16:15:14.511Z,0.90
2022-09-02T16:17:51.148Z,1.70
2022-09-02T16:20:22.319Z,0.80
2022-09-02T16:22:54.081Z,1.50
2022-09-02T16:25:25.593Z,1.00
2022-09-02T16:27:58.415Z,1.30
2022-09-02T16:30:35.155Z,1.10
2022-09-02T16:33:27.754Z,1.00
2022-09-02T16:36:01.758Z,1.20
2022-09-02T16:38:30.454Z,1.00
2022-09-02T16:41:00.164Z,1.20
2022-09-02T16:43:32.889Z,1.20
2022-09-02T16:46:08.035Z,1.70
2022-09-02T16:48:40.780Z,1.50
2022-09-02T16:51:30.765Z,1.00
2022-09-02T16:54:30.906Z,1.40
2022-09-02T16:57:01.561Z,1.30
2022-09-02T16:59:33.702Z,1.20
2022-09-02T17:02:03.159Z,1.30
2022-09-02T17:04:31.551Z,1.30
2022-09-02T17:07:00.117Z,1.60
2022-09-02T17:09:28.460Z,1.50
2022-09-02T17:12:03.312Z,1.40
2022-09-02T17:14:34.618Z,1.20
2022-09-02T17:17:06.682Z,1.40
2022-09-02T17:19:35.176Z,1.20
2022-09-02T17:22:08.515Z,1.20
2022-09-02T17:24:42.029Z,1.30
2022-09-02T17:27:17.293Z,1.20
2022-09-02T17:29:50.132Z,1.60
2022-09-02T17:32:27.318Z,2.80
2022-09-02T17:35:56.921Z,1.40
2022-09-02T17:38:49.119Z,1.40
2022-09-02T17:41:54.773Z,1.20
2022-09-02T17:47:22.882Z,1.80
2022-09-02T17:50:17.978Z,1.90
2022-09-02T17:52:48.979Z,2.40
2022-09-02T17:55:22.774Z,2.20
2022-09-02T17:58:21.873Z,2.90
2022-09-02T18:01:35.353Z,2.00
2022-09-02T18:04:34.398Z,2.30
2022-09-02T18:08:08.896Z,2.60
2022-09-02T18:11:07.137Z,2.10
2022-09-02T18:14:56.943Z,2.00
2022-09-02T18:17:55.392Z,1.80
2022-09-02T18:20:50.353Z,2.30
2022-09-02T18:24:14.797Z,1.90
2022-09-02T18:27:18.480Z,2.00
2022-09-02T18:30:08.063Z,1.80
2022-09-02T18:33:17.106Z,1.90
2022-09-02T18:35:57.610Z,1.80
2022-09-02T18:39:34.260Z,2.50
2022-09-02T18:42:40.504Z,2.30
2022-09-02T18:48:17.941Z,2.50
2022-09-02T18:51:35.895Z,2.50
2022-09-02T18:54:57.718Z,2.00
2022-09-02T18:57:33.659Z,1.70
2022-09-02T19:00:28.122Z,1.70
2022-09-02T19:03:29.718Z,2.20
2022-09-02T19:05:59.904Z,2.50
2022-09-02T19:08:43.043Z,2.60
2022-09-02T19:11:22.134Z,2.30
2022-09-02T19:13:57.324Z,2.40
2022-09-02T19:16:36.351Z,2.10
2022-09-02T19:19:19.019Z,2.70
2022-09-02T19:22:04.333Z,2.10
2022-09-02T19:24:49.832Z,2.50
2022-09-02T19:30:01.473Z,2.10
2022-09-02T19:32:33.836Z,2.20
2022-09-02T19:35:09.338Z,2.50
2022-09-02T19:37:44.564Z,2.10
2022-09-02T19:40:20.727Z,2.50
2022-09-02T19:43:05.245Z,2.10
2022-09-02T19:45:37.504Z,2.90
2022-09-02T19:48:11.595Z,2.20
2022-09-02T19:50:43.759Z,2.40
2022-09-02T19:53:30.597Z,2.20
2022-09-02T19:56:00.549Z,2.40
2022-09-02T19:58:28.907Z,2.80
2022-09-02T20:00:57.299Z,2.50
2022-09-02T20:03:25.809Z,2.80
2022-09-02T20:09:15.055Z,2.50
2022-09-02T20:11:59.151Z,2.10
2022-09-02T20:14:45.678Z,2.70
2022-09-02T20:17:19.866Z,2.40
2022-09-02T20:19:55.723Z,2.70
2022-09-02T20:22:45.759Z,2.80
2022-09-02T20:25:18.795Z,2.60
2022-09-02T20:28:10.112Z,2.40
2022-09-02T20:30:47.853Z,2.30
2022-09-02T20:33:22.438Z,2.90
2022-09-02T20:36:14.208Z,2.70
2022-09-02T20:39:29.249Z,2.30
2022-09-02T20:43:04.851Z,2.80
2022-09-02T20:46:11.924Z,2.30
2022-09-02T20:49:24.506Z,2.50
2022-09-02T20:52:08.893Z,2.60
2022-09-02T20:59:20.877Z,2.60
2022-09-02T21:02:27.025Z,2.80
2022-09-02T21:05:30.442Z,3.10
2022-09-02T21:08:32.262Z,2.40
2022-09-02T21:11:13.607Z,3.20
2022-09-02T21:14:52.562Z,2.20
2022-09-02T21:18:28.517Z,2.50
2022-09-02T21:21:52.599Z,2.40
2022-09-02T21:25:05.816Z,2.20
2022-09-02T21:28:45.240Z,3.00
2022-09-02T21:32:22.329Z,2.30
2022-09-02T21:35:19.592Z,2.40
2022-09-02T21:38:02.476Z,2.40
2022-09-02T21:41:26.182Z,1.90
2022-09-02T21:45:20.073Z,2.00
2022-09-02T21:49:17.145Z,2.30
2022-09-02T21:52:40.158Z,2.20
2022-09-02T21:56:40.495Z,2.60
2022-09-02T21:59:38.023Z,2.30
2022-09-02T22:03:01.443Z,2.60
2022-09-02T22:06:41.323Z,2.70
2022-09-02T22:09:35.157Z,2.00
2022-09-02T22:12:27.492Z,1.70
2022-09-02T22:16:14.959Z,2.00
2022-09-02T22:19:15.416Z,2.20
2022-09-02T22:21:57.555Z,2.10
2022-09-02T22:24:37.534Z,1.70
2022-09-02T22:28:10.935Z,2.10
2022-09-02T22:31:11.153Z,1.50
2022-09-02T22:34:08.597Z,1.70
2022-09-02T22:37:10.513Z,1.80
2022-09-02T22:40:17.597Z,2.20
2022-09-02T22:43:23.895Z,2.10
2022-09-02T22:46:23.030Z,1.30
2022-09-02T22:49:52.107Z,1.70
2022-09-02T22:52:54.695Z,1.70
2022-09-02T22:56:04.932Z,1.60
2022-09-02T22:59:45.852Z,1.90
2022-09-02T23:03:08.717Z,1.50
2022-09-02T23:06:09.814Z,1.70
2022-09-02T23:08:48.925Z,1.40
2022-09-02T23:12:54.115Z,1.60
2022-09-02T23:16:11.865Z,1.60
2022-09-02T23:19:55.305Z,1.50
2022-09-02T23:23:08.119Z,1.80
2022-09-02T23:26:43.128Z,1.50
2022-09-02T23:29:41.379Z,2.30
2022-09-02T23:33:28.233Z,1.60
2022-09-02T23:36:44.420Z,1.70
2022-09-02T23:40:23.038Z,1.50
2022-09-02T23:43:27.720Z,1.00
2022-09-02T23:46:27.289Z,1.30
2022-09-02T23:50:12.070Z,1.80
2022-09-02T23:53:37.946Z,1.30
2022-09-02T23:57:19.589Z,2.00
